Terminal Aerodrome Forecast
Issued by NWS

Home | Current Version | Previous Version | Text Only | Print | Product List | Glossary On
Versions: 1 2 3 4 5 6 7 8 9 10 11 12 13 14 15 16 17 18 19 20 21 22 23 24 25 26
000
FTUS41 KCTP 261725
TAFLNS
TAF
KLNS 261725Z 2618/2718 17011KT P6SM BKN028 OVC035
     FM270300 19011KT 4SM -RA BR OVC015
     FM271000 31004KT 5SM BR OVC090
     FM271200 29006KT P6SM OVC100=

USA.gov is the U.S. government's official web portal to all federal, state and local government web resources and services.